sensor_id;sensor_type;location;lat;lon;timestamp;P1;durP1;ratioP1;P2;durP2;ratioP2
83732;SDS011;73710;49.968;8.338;2023-12-14T05:05:03;5.20;;;2.47;;
83732;SDS011;73710;49.968;8.338;2023-12-14T05:07:28;5.28;;;2.80;;
83732;SDS011;73710;49.968;8.338;2023-12-14T05:09:55;5.65;;;2.47;;
83732;SDS011;73710;49.968;8.338;2023-12-14T05:12:21;9.20;;;2.75;;
83732;SDS011;73710;49.968;8.338;2023-12-14T05:14:47;6.38;;;3.33;;
83732;SDS011;73710;49.968;8.338;2023-12-14T05:17:12;6.60;;;3.63;;
83732;SDS011;73710;49.968;8.338;2023-12-14T05:19:37;7.03;;;2.93;;
83732;SDS011;73710;49.968;8.338;2023-12-14T05:22:03;8.10;;;3.50;;
83732;SDS011;73710;49.968;8.338;2023-12-14T05:24:28;7.30;;;3.13;;
83732;SDS011;73710;49.968;8.338;2023-12-14T05:26:54;4.72;;;2.38;;
83732;SDS011;73710;49.968;8.338;2023-12-14T05:29:20;7.45;;;3.28;;
83732;SDS011;73710;49.968;8.338;2023-12-14T05:31:47;6.18;;;3.20;;
83732;SDS011;73710;49.968;8.338;2023-12-14T05:34:12;7.93;;;3.10;;
83732;SDS011;73710;49.968;8.338;2023-12-14T05:36:37;8.13;;;3.33;;
83732;SDS011;73710;49.968;8.338;2023-12-14T05:39:03;8.57;;;4.80;;
83732;SDS011;73710;49.968;8.338;2023-12-14T05:41:29;6.05;;;2.85;;
83732;SDS011;73710;49.968;8.338;2023-12-14T05:43:55;7.32;;;3.60;;
83732;SDS011;73710;49.968;8.338;2023-12-14T05:46:21;10.80;;;3.00;;
83732;SDS011;73710;49.968;8.338;2023-12-14T05:48:48;6.40;;;3.40;;
83732;SDS011;73710;49.968;8.338;2023-12-14T05:51:25;5.97;;;3.17;;
83732;SDS011;73710;49.968;8.338;2023-12-14T05:53:51;8.18;;;2.85;;
83732;SDS011;73710;49.968;8.338;2023-12-14T05:56:16;7.80;;;3.55;;
83732;SDS011;73710;49.968;8.338;2023-12-14T05:58:42;7.00;;;4.15;;
83732;SDS011;73710;49.968;8.338;2023-12-14T06:01:08;8.73;;;3.63;;
83732;SDS011;73710;49.968;8.338;2023-12-14T06:03:33;5.70;;;3.35;;
83732;SDS011;73710;49.968;8.338;2023-12-14T06:05:58;5.43;;;3.28;;
83732;SDS011;73710;49.968;8.338;2023-12-14T06:08:24;5.25;;;3.33;;
83732;SDS011;73710;49.968;8.338;2023-12-14T06:10:49;5.77;;;2.47;;
83732;SDS011;73710;49.968;8.338;2023-12-14T06:13:14;2.97;;;2.20;;
83732;SDS011;73710;49.968;8.338;2023-12-14T06:15:40;5.40;;;2.60;;
83732;SDS011;73710;49.968;8.338;2023-12-14T06:18:05;7.85;;;2.70;;
83732;SDS011;73710;49.968;8.338;2023-12-14T06:20:31;3.55;;;2.38;;
83732;SDS011;73710;49.968;8.338;2023-12-14T06:22:56;6.70;;;2.90;;
83732;SDS011;73710;49.968;8.338;2023-12-14T06:25:21;5.00;;;1.97;;
83732;SDS011;73710;49.968;8.338;2023-12-14T06:27:47;8.83;;;2.73;;
83732;SDS011;73710;49.968;8.338;2023-12-14T06:30:12;4.27;;;2.93;;
83732;SDS011;73710;49.968;8.338;2023-12-14T06:32:37;7.68;;;2.95;;
83732;SDS011;73710;49.968;8.338;2023-12-14T06:35:03;4.30;;;2.45;;
83732;SDS011;73710;49.968;8.338;2023-12-14T06:37:29;7.38;;;3.22;;
83732;SDS011;73710;49.968;8.338;2023-12-14T06:39:54;4.72;;;2.28;;
83732;SDS011;73710;49.968;8.338;2023-12-14T06:42:19;5.55;;;3.15;;
83732;SDS011;73710;49.968;8.338;2023-12-14T06:44:45;4.50;;;3.08;;
83732;SDS011;73710;49.968;8.338;2023-12-14T06:47:10;6.95;;;3.05;;
83732;SDS011;73710;49.968;8.338;2023-12-14T06:49:36;7.68;;;3.67;;
83732;SDS011;73710;49.968;8.338;2023-12-14T06:52:01;7.13;;;4.57;;
83732;SDS011;73710;49.968;8.338;2023-12-14T06:54:27;8.05;;;3.50;;
83732;SDS011;73710;49.968;8.338;2023-12-14T06:56:52;12.13;;;4.00;;
83732;SDS011;73710;49.968;8.338;2023-12-14T06:59:17;5.35;;;3.70;;
83732;SDS011;73710;49.968;8.338;2023-12-14T07:01:43;6.80;;;2.60;;
83732;SDS011;73710;49.968;8.338;2023-12-14T07:04:08;5.50;;;3.00;;
83732;SDS011;73710;49.968;8.338;2023-12-14T07:06:33;5.10;;;2.40;;
83732;SDS011;73710;49.968;8.338;2023-12-14T07:09:00;6.32;;;3.28;;
83732;SDS011;73710;49.968;8.338;2023-12-14T07:11:25;5.63;;;3.30;;
83732;SDS011;73710;49.968;8.338;2023-12-14T07:13:50;5.32;;;3.00;;
83732;SDS011;73710;49.968;8.338;2023-12-14T07:16:16;6.30;;;3.55;;
83732;SDS011;73710;49.968;8.338;2023-12-14T07:18:43;6.15;;;2.25;;
83732;SDS011;73710;49.968;8.338;2023-12-14T07:21:09;5.75;;;3.53;;
83732;SDS011;73710;49.968;8.338;2023-12-14T07:23:35;5.10;;;3.33;;
83732;SDS011;73710;49.968;8.338;2023-12-14T07:26:01;4.18;;;2.97;;
83732;SDS011;73710;49.968;8.338;2023-12-14T07:28:27;5.85;;;2.75;;
83732;SDS011;73710;49.968;8.338;2023-12-14T07:30:52;4.07;;;2.80;;
83732;SDS011;73710;49.968;8.338;2023-12-14T07:33:18;6.55;;;3.05;;
83732;SDS011;73710;49.968;8.338;2023-12-14T07:35:43;4.65;;;3.42;;
83732;SDS011;73710;49.968;8.338;2023-12-14T07:38:09;5.43;;;3.42;;
83732;SDS011;73710;49.968;8.338;2023-12-14T07:40:35;5.93;;;3.53;;
83732;SDS011;73710;49.968;8.338;2023-12-14T07:43:00;15.87;;;3.07;;
83732;SDS011;73710;49.968;8.338;2023-12-14T07:45:26;6.10;;;3.50;;
83732;SDS011;73710;49.968;8.338;2023-12-14T07:47:51;4.60;;;3.55;;
83732;SDS011;73710;49.968;8.338;2023-12-14T07:50:17;5.37;;;3.07;;
83732;SDS011;73710;49.968;8.338;2023-12-14T07:52:42;4.83;;;2.80;;
83732;SDS011;73710;49.968;8.338;2023-12-14T07:55:07;5.47;;;3.90;;
83732;SDS011;73710;49.968;8.338;2023-12-14T07:57:33;5.45;;;3.63;;
83732;SDS011;73710;49.968;8.338;2023-12-14T07:59:58;8.03;;;3.37;;
83732;SDS011;73710;49.968;8.338;2023-12-14T08:02:23;10.50;;;4.67;;
83732;SDS011;73710;49.968;8.338;2023-12-14T08:04:49;4.75;;;2.75;;
83732;SDS011;73710;49.968;8.338;2023-12-14T08:07:14;6.47;;;4.10;;
83732;SDS011;73710;49.968;8.338;2023-12-14T08:09:40;10.15;;;4.40;;
83732;SDS011;73710;49.968;8.338;2023-12-14T08:12:05;6.33;;;4.17;;
83732;SDS011;73710;49.968;8.338;2023-12-14T08:14:33;5.35;;;3.53;;
83732;SDS011;73710;49.968;8.338;2023-12-14T08:16:59;23.75;;;10.13;;
83732;SDS011;73710;49.968;8.338;2023-12-14T08:19:25;7.88;;;5.30;;
83732;SDS011;73710;49.968;8.338;2023-12-14T08:21:50;8.88;;;4.15;;
83732;SDS011;73710;49.968;8.338;2023-12-14T08:24:15;8.17;;;4.27;;
83732;SDS011;73710;49.968;8.338;2023-12-14T08:26:41;9.20;;;4.90;;
83732;SDS011;73710;49.968;8.338;2023-12-14T08:29:06;9.52;;;6.07;;
83732;SDS011;73710;49.968;8.338;2023-12-14T08:31:31;12.77;;;5.97;;
83732;SDS011;73710;49.968;8.338;2023-12-14T08:33:57;10.60;;;5.27;;
83732;SDS011;73710;49.968;8.338;2023-12-14T08:36:22;9.73;;;5.63;;
83732;SDS011;73710;49.968;8.338;2023-12-14T08:38:47;17.23;;;5.97;;
83732;SDS011;73710;49.968;8.338;2023-12-14T08:41:16;11.23;;;6.25;;
83732;SDS011;73710;49.968;8.338;2023-12-14T08:43:41;11.60;;;6.82;;
83732;SDS011;73710;49.968;8.338;2023-12-14T08:46:07;17.63;;;7.67;;
83732;SDS011;73710;49.968;8.338;2023-12-14T08:48:32;12.63;;;5.72;;
83732;SDS011;73710;49.968;8.338;2023-12-14T08:50:58;15.50;;;6.97;;
83732;SDS011;73710;49.968;8.338;2023-12-14T08:53:23;14.25;;;6.25;;
83732;SDS011;73710;49.968;8.338;2023-12-14T08:55:49;16.77;;;7.32;;
83732;SDS011;73710;49.968;8.338;2023-12-14T08:58:14;15.85;;;7.03;;
83732;SDS011;73710;49.968;8.338;2023-12-14T09:00:40;13.88;;;5.25;;
83732;SDS011;73710;49.968;8.338;2023-12-14T09:03:05;26.63;;;6.32;;
83732;SDS011;73710;49.968;8.338;2023-12-14T09:05:30;10.90;;;5.50;;
83732;SDS011;73710;49.968;8.338;2023-12-14T09:07:56;10.13;;;6.63;;
83732;SDS011;73710;49.968;8.338;2023-12-14T09:10:23;18.02;;;6.75;;
83732;SDS011;73710;49.968;8.338;2023-12-14T09:12:48;9.80;;;4.68;;
83732;SDS011;73710;49.968;8.338;2023-12-14T09:15:14;18.35;;;6.68;;
83732;SDS011;73710;49.968;8.338;2023-12-14T09:17:40;16.42;;;6.68;;
83732;SDS011;73710;49.968;8.338;2023-12-14T09:20:08;11.95;;;5.68;;
83732;SDS011;73710;49.968;8.338;2023-12-14T09:22:34;13.50;;;5.70;;
83732;SDS011;73710;49.968;8.338;2023-12-14T09:25:00;12.18;;;5.13;;
83732;SDS011;73710;49.968;8.338;2023-12-14T09:27:25;13.30;;;4.82;;
83732;SDS011;73710;49.968;8.338;2023-12-14T09:29:51;13.38;;;6.35;;
83732;SDS011;73710;49.968;8.338;2023-12-14T09:32:16;11.55;;;3.83;;
83732;SDS011;73710;49.968;8.338;2023-12-14T09:34:42;9.80;;;4.43;;
83732;SDS011;73710;49.968;8.338;2023-12-14T09:37:08;11.43;;;5.43;;
83732;SDS011;73710;49.968;8.338;2023-12-14T09:39:33;10.82;;;4.75;;
83732;SDS011;73710;49.968;8.338;2023-12-14T09:42:02;7.77;;;4.30;;
83732;SDS011;73710;49.968;8.338;2023-12-14T09:44:29;10.65;;;4.78;;
83732;SDS011;73710;49.968;8.338;2023-12-14T09:46:55;9.55;;;5.25;;
83732;SDS011;73710;49.968;8.338;2023-12-14T09:49:22;11.65;;;4.05;;
83732;SDS011;73710;49.968;8.338;2023-12-14T09:51:49;11.15;;;4.35;;
83732;SDS011;73710;49.968;8.338;2023-12-14T09:54:15;9.50;;;4.23;;
83732;SDS011;73710;49.968;8.338;2023-12-14T09:56:46;11.15;;;4.85;;
83732;SDS011;73710;49.968;8.338;2023-12-14T09:59:12;8.45;;;4.53;;
83732;SDS011;73710;49.968;8.338;2023-12-14T10:01:38;9.05;;;4.40;;
83732;SDS011;73710;49.968;8.338;2023-12-14T10:06:31;13.70;;;4.97;;
83732;SDS011;73710;49.968;8.338;2023-12-14T10:08:57;9.75;;;3.85;;
83732;SDS011;73710;49.968;8.338;2023-12-14T10:11:23;8.13;;;4.35;;
83732;SDS011;73710;49.968;8.338;2023-12-14T10:13:48;7.00;;;3.60;;
83732;SDS011;73710;49.968;8.338;2023-12-14T10:16:26;9.88;;;4.25;;
83732;SDS011;73710;49.968;8.338;2023-12-14T10:18:55;10.45;;;3.00;;
83732;SDS011;73710;49.968;8.338;2023-12-14T10:21:20;7.45;;;3.40;;
83732;SDS011;73710;49.968;8.338;2023-12-14T10:23:46;5.40;;;2.55;;
83732;SDS011;73710;49.968;8.338;2023-12-14T10:26:12;8.93;;;3.08;;
83732;SDS011;73710;49.968;8.338;2023-12-14T10:28:39;5.22;;;2.95;;
83732;SDS011;73710;49.968;8.338;2023-12-14T10:31:05;6.90;;;3.75;;
83732;SDS011;73710;49.968;8.338;2023-12-14T10:33:30;8.13;;;3.13;;
83732;SDS011;73710;49.968;8.338;2023-12-14T10:35:56;5.77;;;3.33;;
83732;SDS011;73710;49.968;8.338;2023-12-14T10:38:21;6.28;;;3.45;;
83732;SDS011;73710;49.968;8.338;2023-12-14T10:40:50;7.20;;;3.85;;
83732;SDS011;73710;49.968;8.338;2023-12-14T10:43:16;7.63;;;3.35;;
83732;SDS011;73710;49.968;8.338;2023-12-14T10:45:42;7.75;;;3.65;;
83732;SDS011;73710;49.968;8.338;2023-12-14T10:48:08;7.65;;;3.17;;
83732;SDS011;73710;49.968;8.338;2023-12-14T10:50:34;7.00;;;2.97;;
83732;SDS011;73710;49.968;8.338;2023-12-14T10:53:01;7.10;;;3.67;;
83732;SDS011;73710;49.968;8.338;2023-12-14T10:55:33;10.40;;;4.20;;
83732;SDS011;73710;49.968;8.338;2023-12-14T10:58:03;6.05;;;3.30;;
83732;SDS011;73710;49.968;8.338;2023-12-14T11:00:28;7.50;;;3.10;;
83732;SDS011;73710;49.968;8.338;2023-12-14T11:02:55;7.20;;;3.58;;
83732;SDS011;73710;49.968;8.338;2023-12-14T11:05:22;5.13;;;2.80;;
83732;SDS011;73710;49.968;8.338;2023-12-14T11:08:03;6.05;;;2.63;;
83732;SDS011;73710;49.968;8.338;2023-12-14T11:10:40;7.25;;;2.35;;
83732;SDS011;73710;49.968;8.338;2023-12-14T11:13:12;6.20;;;2.95;;
83732;SDS011;73710;49.968;8.338;2023-12-14T11:15:39;7.82;;;3.45;;
83732;SDS011;73710;49.968;8.338;2023-12-14T11:20:47;6.70;;;2.87;;
83732;SDS011;73710;49.968;8.338;2023-12-14T11:23:26;7.45;;;2.92;;
83732;SDS011;73710;49.968;8.338;2023-12-14T11:26:15;8.05;;;3.55;;
83732;SDS011;73710;49.968;8.338;2023-12-14T11:28:47;6.70;;;3.25;;
83732;SDS011;73710;49.968;8.338;2023-12-14T11:31:13;6.10;;;2.95;;
83732;SDS011;73710;49.968;8.338;2023-12-14T11:33:38;7.68;;;3.33;;
83732;SDS011;73710;49.968;8.338;2023-12-14T11:36:04;3.75;;;2.00;;
83732;SDS011;73710;49.968;8.338;2023-12-14T11:38:30;5.60;;;2.85;;
83732;SDS011;73710;49.968;8.338;2023-12-14T11:40:57;6.00;;;2.95;;
83732;SDS011;73710;49.968;8.338;2023-12-14T11:43:23;7.35;;;2.47;;
83732;SDS011;73710;49.968;8.338;2023-12-14T11:45:51;5.43;;;2.78;;
83732;SDS011;73710;49.968;8.338;2023-12-14T11:48:17;6.72;;;3.08;;
83732;SDS011;73710;49.968;8.338;2023-12-14T11:50:45;6.53;;;1.98;;
83732;SDS011;73710;49.968;8.338;2023-12-14T11:53:11;4.88;;;2.47;;
83732;SDS011;73710;49.968;8.338;2023-12-14T11:55:37;7.50;;;3.38;;
83732;SDS011;73710;49.968;8.338;2023-12-14T11:58:05;5.05;;;3.15;;
83732;SDS011;73710;49.968;8.338;2023-12-14T12:00:31;4.70;;;2.50;;
83732;SDS011;73710;49.968;8.338;2023-12-14T12:03:10;7.20;;;4.28;;
83732;SDS011;73710;49.968;8.338;2023-12-14T12:08:06;4.82;;;1.90;;
83732;SDS011;73710;49.968;8.338;2023-12-14T12:10:31;7.10;;;2.80;;
83732;SDS011;73710;49.968;8.338;2023-12-14T12:13:02;9.10;;;3.28;;
83732;SDS011;73710;49.968;8.338;2023-12-14T12:15:30;13.90;;;4.18;;
83732;SDS011;73710;49.968;8.338;2023-12-14T12:17:57;5.78;;;2.88;;
83732;SDS011;73710;49.968;8.338;2023-12-14T12:20:22;8.63;;;3.65;;
83732;SDS011;73710;49.968;8.338;2023-12-14T12:22:48;6.35;;;3.25;;
83732;SDS011;73710;49.968;8.338;2023-12-14T12:25:13;7.22;;;3.20;;
83732;SDS011;73710;49.968;8.338;2023-12-14T12:27:39;8.13;;;4.00;;
83732;SDS011;73710;49.968;8.338;2023-12-14T12:30:05;7.63;;;3.58;;
83732;SDS011;73710;49.968;8.338;2023-12-14T12:32:31;6.82;;;2.95;;
83732;SDS011;73710;49.968;8.338;2023-12-14T12:34:56;5.33;;;3.70;;
83732;SDS011;73710;49.968;8.338;2023-12-14T12:37:22;6.30;;;3.80;;
83732;SDS011;73710;49.968;8.338;2023-12-14T12:39:47;9.80;;;3.03;;
83732;SDS011;73710;49.968;8.338;2023-12-14T12:42:13;6.27;;;2.60;;
83732;SDS011;73710;49.968;8.338;2023-12-14T12:44:38;5.33;;;2.87;;
83732;SDS011;73710;49.968;8.338;2023-12-14T12:47:03;4.27;;;1.73;;
83732;SDS011;73710;49.968;8.338;2023-12-14T12:49:29;6.85;;;2.53;;
83732;SDS011;73710;49.968;8.338;2023-12-14T12:51:55;3.70;;;1.73;;
83732;SDS011;73710;49.968;8.338;2023-12-14T12:54:21;5.15;;;2.20;;
83732;SDS011;73710;49.968;8.338;2023-12-14T12:56:46;4.43;;;1.73;;
83732;SDS011;73710;49.968;8.338;2023-12-14T12:59:12;3.65;;;2.10;;
83732;SDS011;73710;49.968;8.338;2023-12-14T13:01:39;6.22;;;2.25;;
83732;SDS011;73710;49.968;8.338;2023-12-14T13:04:04;4.95;;;2.38;;
83732;SDS011;73710;49.968;8.338;2023-12-14T13:06:42;3.92;;;1.60;;
83732;SDS011;73710;49.968;8.338;2023-12-14T13:09:07;3.50;;;1.35;;
83732;SDS011;73710;49.968;8.338;2023-12-14T13:11:33;7.30;;;2.53;;
83732;SDS011;73710;49.968;8.338;2023-12-14T13:13:58;4.13;;;1.97;;
83732;SDS011;73710;49.968;8.338;2023-12-14T13:16:26;5.43;;;2.00;;
83732;SDS011;73710;49.968;8.338;2023-12-14T13:18:51;6.22;;;2.47;;
83732;SDS011;73710;49.968;8.338;2023-12-14T13:21:16;3.83;;;2.07;;
83732;SDS011;73710;49.968;8.338;2023-12-14T13:23:42;5.83;;;2.40;;
83732;SDS011;73710;49.968;8.338;2023-12-14T13:26:09;8.35;;;2.63;;
83732;SDS011;73710;49.968;8.338;2023-12-14T13:28:34;4.57;;;2.30;;
83732;SDS011;73710;49.968;8.338;2023-12-14T13:30:59;3.05;;;2.00;;
83732;SDS011;73710;49.968;8.338;2023-12-14T13:33:25;3.42;;;2.10;;
83732;SDS011;73710;49.968;8.338;2023-12-14T13:35:50;4.38;;;2.17;;
83732;SDS011;73710;49.968;8.338;2023-12-14T13:38:16;4.07;;;2.53;;
83732;SDS011;73710;49.968;8.338;2023-12-14T13:40:41;5.03;;;2.97;;
83732;SDS011;73710;49.968;8.338;2023-12-14T13:43:06;4.00;;;1.95;;
83732;SDS011;73710;49.968;8.338;2023-12-14T13:45:35;5.35;;;2.55;;
83732;SDS011;73710;49.968;8.338;2023-12-14T13:48:02;5.55;;;2.00;;
83732;SDS011;73710;49.968;8.338;2023-12-14T13:50:45;6.00;;;3.15;;
83732;SDS011;73710;49.968;8.338;2023-12-14T13:53:10;5.28;;;1.92;;
83732;SDS011;73710;49.968;8.338;2023-12-14T13:55:36;5.03;;;2.25;;
83732;SDS011;73710;49.968;8.338;2023-12-14T13:58:01;5.03;;;2.15;;
83732;SDS011;73710;49.968;8.338;2023-12-14T14:00:27;4.20;;;2.00;;
83732;SDS011;73710;49.968;8.338;2023-12-14T14:02:52;3.53;;;1.83;;
83732;SDS011;73710;49.968;8.338;2023-12-14T14:05:18;3.70;;;2.03;;
83732;SDS011;73710;49.968;8.338;2023-12-14T14:07:43;5.77;;;2.70;;
83732;SDS011;73710;49.968;8.338;2023-12-14T14:10:09;5.03;;;2.15;;
83732;SDS011;73710;49.968;8.338;2023-12-14T14:12:35;5.32;;;2.10;;
83732;SDS011;73710;49.968;8.338;2023-12-14T14:15:00;5.57;;;2.25;;
83732;SDS011;73710;49.968;8.338;2023-12-14T14:17:26;4.97;;;2.00;;
83732;SDS011;73710;49.968;8.338;2023-12-14T14:19:51;3.73;;;1.13;;
83732;SDS011;73710;49.968;8.338;2023-12-14T14:22:16;2.70;;;1.23;;
83732;SDS011;73710;49.968;8.338;2023-12-14T14:24:42;3.47;;;1.90;;
83732;SDS011;73710;49.968;8.338;2023-12-14T14:27:07;5.73;;;2.37;;
83732;SDS011;73710;49.968;8.338;2023-12-14T14:29:32;3.17;;;1.57;;
83732;SDS011;73710;49.968;8.338;2023-12-14T14:31:58;8.43;;;2.53;;
83732;SDS011;73710;49.968;8.338;2023-12-14T14:34:23;5.33;;;2.53;;
83732;SDS011;73710;49.968;8.338;2023-12-14T14:36:49;3.38;;;1.98;;
83732;SDS011;73710;49.968;8.338;2023-12-14T14:39:14;5.55;;;2.05;;
83732;SDS011;73710;49.968;8.338;2023-12-14T14:41:43;5.05;;;1.65;;
83732;SDS011;73710;49.968;8.338;2023-12-14T14:44:08;5.28;;;2.35;;
83732;SDS011;73710;49.968;8.338;2023-12-14T14:46:34;8.55;;;3.58;;
83732;SDS011;73710;49.968;8.338;2023-12-14T14:49:00;11.75;;;5.28;;
83732;SDS011;73710;49.968;8.338;2023-12-14T14:51:26;10.68;;;5.47;;
83732;SDS011;73710;49.968;8.338;2023-12-14T14:53:52;8.23;;;3.58;;
83732;SDS011;73710;49.968;8.338;2023-12-14T14:56:17;5.20;;;2.47;;
83732;SDS011;73710;49.968;8.338;2023-12-14T14:58:42;2.90;;;1.27;;
83732;SDS011;73710;49.968;8.338;2023-12-14T15:01:11;2.58;;;1.58;;
83732;SDS011;73710;49.968;8.338;2023-12-14T15:03:36;2.75;;;1.55;;
83732;SDS011;73710;49.968;8.338;2023-12-14T15:06:01;3.17;;;1.80;;
83732;SDS011;73710;49.968;8.338;2023-12-14T15:08:27;3.45;;;1.38;;
83732;SDS011;73710;49.968;8.338;2023-12-14T15:10:53;2.08;;;1.60;;
83732;SDS011;73710;49.968;8.338;2023-12-14T15:13:20;2.65;;;0.82;;
83732;SDS011;73710;49.968;8.338;2023-12-14T15:15:46;4.22;;;0.88;;
83732;SDS011;73710;49.968;8.338;2023-12-14T15:18:21;2.97;;;1.17;;
83732;SDS011;73710;49.968;8.338;2023-12-14T15:20:47;1.90;;;0.88;;
83732;SDS011;73710;49.968;8.338;2023-12-14T15:23:14;1.73;;;0.93;;
83732;SDS011;73710;49.968;8.338;2023-12-14T15:25:39;1.55;;;0.75;;
83732;SDS011;73710;49.968;8.338;2023-12-14T15:28:05;2.25;;;1.10;;
83732;SDS011;73710;49.968;8.338;2023-12-14T15:30:31;1.60;;;0.98;;
83732;SDS011;73710;49.968;8.338;2023-12-14T15:32:56;2.15;;;1.00;;
83732;SDS011;73710;49.968;8.338;2023-12-14T15:35:22;3.25;;;1.70;;
83732;SDS011;73710;49.968;8.338;2023-12-14T15:37:47;3.33;;;1.05;;
83732;SDS011;73710;49.968;8.338;2023-12-14T15:40:12;2.80;;;1.57;;
83732;SDS011;73710;49.968;8.338;2023-12-14T15:42:38;1.07;;;0.80;;
83732;SDS011;73710;49.968;8.338;2023-12-14T15:45:03;2.13;;;0.77;;
83732;SDS011;73710;49.968;8.338;2023-12-14T15:47:30;2.33;;;1.00;;
83732;SDS011;73710;49.968;8.338;2023-12-14T15:49:55;3.33;;;0.82;;
83732;SDS011;73710;49.968;8.338;2023-12-14T15:52:20;1.90;;;1.08;;
83732;SDS011;73710;49.968;8.338;2023-12-14T15:54:46;3.38;;;1.42;;
83732;SDS011;73710;49.968;8.338;2023-12-14T15:57:11;2.85;;;1.23;;
83732;SDS011;73710;49.968;8.338;2023-12-14T15:59:36;2.23;;;1.60;;
83732;SDS011;73710;49.968;8.338;2023-12-14T16:02:02;1.70;;;0.98;;
83732;SDS011;73710;49.968;8.338;2023-12-14T16:04:27;3.30;;;1.52;;
83732;SDS011;73710;49.968;8.338;2023-12-14T16:06:53;2.92;;;1.10;;
83732;SDS011;73710;49.968;8.338;2023-12-14T16:09:18;3.47;;;1.20;;
83732;SDS011;73710;49.968;8.338;2023-12-14T16:11:44;1.87;;;0.73;;
83732;SDS011;73710;49.968;8.338;2023-12-14T16:14:09;2.53;;;1.20;;
83732;SDS011;73710;49.968;8.338;2023-12-14T16:16:34;3.08;;;1.73;;
83732;SDS011;73710;49.968;8.338;2023-12-14T16:19:00;1.98;;;0.90;;
83732;SDS011;73710;49.968;8.338;2023-12-14T16:21:27;1.55;;;0.70;;
83732;SDS011;73710;49.968;8.338;2023-12-14T16:23:52;1.77;;;0.85;;
83732;SDS011;73710;49.968;8.338;2023-12-14T16:26:17;2.50;;;1.00;;
83732;SDS011;73710;49.968;8.338;2023-12-14T16:28:43;2.53;;;1.10;;
83732;SDS011;73710;49.968;8.338;2023-12-14T16:31:09;2.90;;;0.73;;
83732;SDS011;73710;49.968;8.338;2023-12-14T16:37:22;2.00;;;1.20;;
83732;SDS011;73710;49.968;8.338;2023-12-14T16:39:49;2.38;;;1.20;;
83732;SDS011;73710;49.968;8.338;2023-12-14T16:42:14;1.93;;;1.00;;
83732;SDS011;73710;49.968;8.338;2023-12-14T16:44:40;1.73;;;0.70;;
83732;SDS011;73710;49.968;8.338;2023-12-14T16:47:06;1.35;;;0.60;;
83732;SDS011;73710;49.968;8.338;2023-12-14T16:49:34;4.50;;;0.60;;
83732;SDS011;73710;49.968;8.338;2023-12-14T16:52:00;2.38;;;1.23;;
83732;SDS011;73710;49.968;8.338;2023-12-14T16:54:26;1.17;;;0.45;;
83732;SDS011;73710;49.968;8.338;2023-12-14T16:56:52;1.63;;;0.65;;
83732;SDS011;73710;49.968;8.338;2023-12-14T16:59:17;2.07;;;1.00;;
83732;SDS011;73710;49.968;8.338;2023-12-14T17:01:42;2.45;;;0.68;;
83732;SDS011;73710;49.968;8.338;2023-12-14T17:04:08;3.50;;;1.10;;
83732;SDS011;73710;49.968;8.338;2023-12-14T17:06:33;2.80;;;0.83;;
83732;SDS011;73710;49.968;8.338;2023-12-14T17:08:59;2.53;;;0.75;;
83732;SDS011;73710;49.968;8.338;2023-12-14T17:11:25;1.23;;;0.80;;
83732;SDS011;73710;49.968;8.338;2023-12-14T17:13:50;1.37;;;0.60;;
83732;SDS011;73710;49.968;8.338;2023-12-14T17:16:16;1.30;;;0.70;;
83732;SDS011;73710;49.968;8.338;2023-12-14T17:18:43;1.55;;;0.75;;
83732;SDS011;73710;49.968;8.338;2023-12-14T17:21:21;2.50;;;1.23;;
83732;SDS011;73710;49.968;8.338;2023-12-14T17:23:48;2.42;;;0.98;;
83732;SDS011;73710;49.968;8.338;2023-12-14T17:26:14;2.55;;;1.35;;
83732;SDS011;73710;49.968;8.338;2023-12-14T17:28:44;7.80;;;0.93;;
83732;SDS011;73710;49.968;8.338;2023-12-14T17:31:10;4.22;;;2.05;;
83732;SDS011;73710;49.968;8.338;2023-12-14T17:33:36;2.45;;;1.58;;
83732;SDS011;73710;49.968;8.338;2023-12-14T17:36:01;4.53;;;1.30;;
83732;SDS011;73710;49.968;8.338;2023-12-14T17:38:27;2.95;;;1.25;;
83732;SDS011;73710;49.968;8.338;2023-12-14T17:40:52;3.22;;;1.45;;
83732;SDS011;73710;49.968;8.338;2023-12-14T17:43:18;3.97;;;1.70;;
83732;SDS011;73710;49.968;8.338;2023-12-14T17:45:43;2.97;;;1.30;;
83732;SDS011;73710;49.968;8.338;2023-12-14T17:48:08;3.50;;;1.60;;
83732;SDS011;73710;49.968;8.338;2023-12-14T17:50:33;4.13;;;1.83;;
83732;SDS011;73710;49.968;8.338;2023-12-14T17:52:59;3.10;;;1.52;;
83732;SDS011;73710;49.968;8.338;2023-12-14T17:55:24;3.60;;;1.60;;
83732;SDS011;73710;49.968;8.338;2023-12-14T17:57:50;4.90;;;2.07;;
83732;SDS011;73710;49.968;8.338;2023-12-14T18:00:15;3.75;;;1.73;;
83732;SDS011;73710;49.968;8.338;2023-12-14T18:02:41;4.97;;;2.42;;
83732;SDS011;73710;49.968;8.338;2023-12-14T18:05:06;3.72;;;1.48;;
83732;SDS011;73710;49.968;8.338;2023-12-14T18:07:32;4.35;;;2.30;;
83732;SDS011;73710;49.968;8.338;2023-12-14T18:09:57;4.72;;;1.77;;
83732;SDS011;73710;49.968;8.338;2023-12-14T18:12:22;3.17;;;1.10;;
83732;SDS011;73710;49.968;8.338;2023-12-14T18:14:48;5.47;;;1.67;;
83732;SDS011;73710;49.968;8.338;2023-12-14T18:17:13;1.80;;;1.10;;
83732;SDS011;73710;49.968;8.338;2023-12-14T18:19:39;3.70;;;1.48;;
83732;SDS011;73710;49.968;8.338;2023-12-14T18:22:05;3.67;;;1.83;;
83732;SDS011;73710;49.968;8.338;2023-12-14T18:24:30;5.93;;;3.38;;
83732;SDS011;73710;49.968;8.338;2023-12-14T18:26:55;3.67;;;2.30;;
83732;SDS011;73710;49.968;8.338;2023-12-14T18:29:21;4.00;;;1.77;;
83732;SDS011;73710;49.968;8.338;2023-12-14T18:31:47;5.13;;;2.45;;
83732;SDS011;73710;49.968;8.338;2023-12-14T18:34:13;2.55;;;1.27;;
83732;SDS011;73710;49.968;8.338;2023-12-14T18:36:38;4.88;;;2.60;;
83732;SDS011;73710;49.968;8.338;2023-12-14T18:39:03;6.65;;;2.33;;
83732;SDS011;73710;49.968;8.338;2023-12-14T18:41:29;4.03;;;1.70;;
83732;SDS011;73710;49.968;8.338;2023-12-14T18:43:54;5.72;;;3.00;;
83732;SDS011;73710;49.968;8.338;2023-12-14T18:46:19;3.90;;;1.87;;
83732;SDS011;73710;49.968;8.338;2023-12-14T18:48:45;4.47;;;1.73;;
83732;SDS011;73710;49.968;8.338;2023-12-14T18:51:10;3.28;;;1.63;;
83732;SDS011;73710;49.968;8.338;2023-12-14T18:53:35;4.38;;;1.92;;
83732;SDS011;73710;49.968;8.338;2023-12-14T18:56:01;4.35;;;1.95;;
83732;SDS011;73710;49.968;8.338;2023-12-14T18:58:27;5.55;;;2.75;;
83732;SDS011;73710;49.968;8.338;2023-12-14T19:00:53;7.88;;;2.92;;
83732;SDS011;73710;49.968;8.338;2023-12-14T19:03:18;9.50;;;2.97;;
83732;SDS011;73710;49.968;8.338;2023-12-14T19:05:44;6.22;;;2.45;;
83732;SDS011;73710;49.968;8.338;2023-12-14T19:08:10;5.18;;;2.20;;
83732;SDS011;73710;49.968;8.338;2023-12-14T19:10:36;5.82;;;2.88;;
83732;SDS011;73710;49.968;8.338;2023-12-14T19:13:01;9.03;;;3.30;;
83732;SDS011;73710;49.968;8.338;2023-12-14T19:15:28;4.05;;;2.63;;
83732;SDS011;73710;49.968;8.338;2023-12-14T19:17:57;12.63;;;2.10;;
83732;SDS011;73710;49.968;8.338;2023-12-14T19:20:23;20.38;;;3.47;;
83732;SDS011;73710;49.968;8.338;2023-12-14T19:22:49;8.23;;;3.22;;
83732;SDS011;73710;49.968;8.338;2023-12-14T19:25:14;10.43;;;4.03;;
83732;SDS011;73710;49.968;8.338;2023-12-14T19:27:40;6.28;;;3.05;;
83732;SDS011;73710;49.968;8.338;2023-12-14T19:30:07;5.65;;;1.83;;
83732;SDS011;73710;49.968;8.338;2023-12-14T19:32:33;6.70;;;2.72;;
83732;SDS011;73710;49.968;8.338;2023-12-14T19:35:01;6.63;;;2.95;;
83732;SDS011;73710;49.968;8.338;2023-12-14T19:37:27;10.55;;;4.28;;
83732;SDS011;73710;49.968;8.338;2023-12-14T19:40:01;21.88;;;3.72;;
83732;SDS011;73710;49.968;8.338;2023-12-14T19:43:02;12.32;;;3.20;;
83732;SDS011;73710;49.968;8.338;2023-12-14T19:51:52;4.25;;;2.85;;
83732;SDS011;73710;49.968;8.338;2023-12-14T19:55:05;4.13;;;2.00;;
83732;SDS011;73710;49.968;8.338;2023-12-14T19:57:40;3.95;;;1.67;;
83732;SDS011;73710;49.968;8.338;2023-12-14T20:00:47;3.83;;;1.40;;
83732;SDS011;73710;49.968;8.338;2023-12-14T20:04:25;4.28;;;1.42;;